Time;durP1;ratioP1;P1;durP2;ratioP2;P2;SDS_P1;SDS_P2;PMS_P1;PMS_P2;Temp;Humidity;BMP_temperature;BMP_pressure;BME280_temperature;BME280_humidity;BME280_pressure;Samples;Min_cycle;Max_cycle;Signal;HPM_P1;HPM_P2
2023/09/06 00:00:49;;;;;;;13.55;5.40;;;19.20;73.00;;;;;;5035129;28;20025;-64
2023/09/06 00:03:14;;;;;;;8.23;5.05;;;19.20;72.80;;;;;;5033150;28;20033;-64
2023/09/06 00:05:43;;;;;;;9.75;5.15;;;19.10;72.90;;;;;;5032853;28;20426;-64
2023/09/06 00:08:14;;;;;;;6.53;4.55;;;19.10;73.00;;;;;;5033073;28;20026;-64
2023/09/06 00:10:43;;;;;;;8.85;4.63;;;19.10;73.10;;;;;;5032818;28;20021;-64
2023/09/06 00:13:10;;;;;;;8.18;4.35;;;19.10;72.80;;;;;;5032795;28;20490;-63
2023/09/06 00:15:36;;;;;;;7.57;4.72;;;19.00;72.90;;;;;;5033085;28;20038;-63
2023/09/06 00:18:06;;;;;;;11.07;4.43;;;19.00;72.90;;;;;;5033723;28;20028;-64
2023/09/06 00:20:36;;;;;;;6.37;4.27;;;18.90;73.20;;;;;;5033398;28;20052;-63
2023/09/06 00:23:04;;;;;;;6.68;4.30;;;18.90;73.40;;;;;;5032451;28;20269;-64
2023/09/06 00:25:31;;;;;;;7.80;4.53;;;18.90;73.60;;;;;;5032841;28;20042;-64
2023/09/06 00:27:59;;;;;;;5.88;4.43;;;18.80;74.10;;;;;;5032483;28;20489;-63
2023/09/06 00:30:25;;;;;;;8.80;4.13;;;18.80;74.10;;;;;;5015223;28;20032;-63
2023/09/06 00:32:53;;;;;;;5.20;4.18;;;18.70;74.10;;;;;;5032388;28;20378;-64
2023/09/06 00:35:26;;;;;;;6.85;4.50;;;18.70;74.50;;;;;;5032829;28;20104;-64
2023/09/06 00:37:53;;;;;;;8.98;4.70;;;18.70;74.40;;;;;;5014791;28;20450;-63
2023/09/06 00:40:20;;;;;;;9.20;5.10;;;18.70;74.60;;;;;;5033043;28;20053;-64
2023/09/06 00:42:50;;;;;;;7.45;5.18;;;18.70;75.10;;;;;;5032359;28;20104;-64
2023/09/06 00:45:19;;;;;;;7.47;5.15;;;18.70;75.40;;;;;;5032796;28;20120;-63
2023/09/06 00:47:45;;;;;;;9.63;5.53;;;18.60;75.40;;;;;;5032263;28;20041;-63
2023/09/06 00:50:13;;;;;;;7.43;5.13;;;18.70;74.90;;;;;;5032604;28;20053;-64
2023/09/06 00:52:39;;;;;;;7.22;5.32;;;18.70;75.30;;;;;;5032531;28;20029;-64
2023/09/06 00:55:06;;;;;;;11.00;5.55;;;18.70;75.20;;;;;;5031982;28;20038;-64
2023/09/06 00:57:32;;;;;;;8.57;5.07;;;18.70;75.00;;;;;;5033846;28;20378;-64
2023/09/06 00:59:59;;;;;;;12.85;5.43;;;18.70;75.10;;;;;;5052139;28;20029;-64
2023/09/06 01:02:26;;;;;;;8.93;5.45;;;18.70;75.30;;;;;;5052445;28;20048;-64
2023/09/06 01:04:53;;;;;;;7.13;5.43;;;18.60;75.10;;;;;;5051970;28;20037;-64
2023/09/06 01:07:25;;;;;;;8.80;5.75;;;18.60;75.30;;;;;;5055589;28;20037;-64
2023/09/06 01:09:51;;;;;;;7.65;5.20;;;18.60;75.40;;;;;;5056098;28;20440;-64
2023/09/06 01:12:17;;;;;;;10.15;5.90;;;18.60;75.60;;;;;;5056278;28;20382;-64
2023/09/06 01:14:42;;;;;;;10.40;5.60;;;18.50;75.80;;;;;;5055980;28;20029;-67
2023/09/06 01:17:09;;;;;;;9.30;6.20;;;18.50;75.70;;;;;;5056326;28;20028;-64
2023/09/06 01:19:39;;;;;;;9.25;6.00;;;18.50;75.90;;;;;;5056185;28;20036;-64
2023/09/06 01:22:21;;;;;;;9.32;5.90;;;18.50;76.10;;;;;;5055408;28;20032;-64
2023/09/06 01:24:49;;;;;;;10.27;6.82;;;18.50;76.50;;;;;;5055979;28;20039;-64
2023/09/06 01:27:14;;;;;;;9.63;5.78;;;18.50;76.70;;;;;;5056059;28;20529;-64
2023/09/06 01:29:40;;;;;;;6.47;4.35;;;18.40;76.50;;;;;;5055705;28;20052;-64
2023/09/06 01:32:06;;;;;;;8.07;5.07;;;18.40;76.80;;;;;;5055576;28;20035;-64
2023/09/06 01:34:32;;;;;;;8.50;5.80;;;18.40;77.10;;;;;;5056327;28;20056;-64
2023/09/06 01:36:58;;;;;;;8.55;5.15;;;18.40;77.70;;;;;;5055809;28;20087;-64
2023/09/06 01:39:23;;;;;;;7.20;4.63;;;18.40;77.80;;;;;;5055808;28;20084;-64
2023/09/06 01:41:49;;;;;;;7.22;5.00;;;18.40;77.90;;;;;;5055705;28;20103;-64
2023/09/06 01:44:14;;;;;;;7.65;4.95;;;18.40;78.40;;;;;;5055716;28;20029;-64
2023/09/06 01:46:41;;;;;;;8.10;5.20;;;18.40;78.30;;;;;;5055465;28;20071;-64
2023/09/06 01:49:08;;;;;;;8.50;5.00;;;18.40;79.10;;;;;;5055336;28;20029;-64
2023/09/06 01:51:34;;;;;;;10.02;4.28;;;18.30;78.80;;;;;;5055590;28;20067;-64
2023/09/06 01:54:04;;;;;;;8.13;4.40;;;18.30;79.20;;;;;;5055163;28;20032;-64
2023/09/06 01:56:30;;;;;;;7.00;4.95;;;18.30;79.00;;;;;;5052150;28;20053;-65
2023/09/06 01:58:55;;;;;;;7.72;4.70;;;18.30;79.20;;;;;;5054847;28;20070;-64
2023/09/06 02:01:21;;;;;;;5.78;4.53;;;18.30;79.40;;;;;;5055147;28;20064;-65
2023/09/06 02:03:47;;;;;;;6.80;5.20;;;18.30;79.40;;;;;;5055048;28;20385;-65
2023/09/06 02:06:12;;;;;;;7.20;4.85;;;18.30;79.90;;;;;;5055854;28;20436;-65
2023/09/06 02:08:40;;;;;;;7.82;5.13;;;18.20;79.90;;;;;;5052433;28;20059;-64
2023/09/06 02:11:06;;;;;;;9.70;5.82;;;18.20;80.00;;;;;;5054836;28;20048;-65
2023/09/06 02:13:32;;;;;;;16.85;5.80;;;18.20;79.70;;;;;;5055287;28;20053;-65
2023/09/06 02:16:02;;;;;;;13.40;5.75;;;18.10;80.00;;;;;;5036920;28;20036;-65
2023/09/06 02:18:28;;;;;;;9.38;5.90;;;18.10;80.00;;;;;;5055101;28;20112;-65
2023/09/06 02:20:58;;;;;;;7.53;5.43;;;18.10;80.30;;;;;;5054731;28;20100;-65
2023/09/06 02:23:24;;;;;;;8.38;5.80;;;18.10;80.20;;;;;;5054926;28;20116;-64
2023/09/06 02:25:49;;;;;;;8.80;5.47;;;18.00;80.40;;;;;;5054639;28;20108;-65
2023/09/06 02:28:17;;;;;;;8.63;5.78;;;18.00;80.50;;;;;;5037101;28;20121;-64
2023/09/06 02:30:43;;;;;;;12.77;6.03;;;18.00;80.60;;;;;;5054949;28;20033;-64
2023/09/06 02:33:11;;;;;;;8.40;5.60;;;18.00;80.60;;;;;;5054502;28;20029;-65
2023/09/06 02:35:40;;;;;;;9.23;6.28;;;18.00;80.70;;;;;;5054915;28;20107;-65
2023/09/06 02:38:09;;;;;;;9.82;6.40;;;17.90;80.80;;;;;;5054420;28;20096;-65
2023/09/06 02:40:35;;;;;;;9.35;6.40;;;17.90;80.80;;;;;;5054907;28;20121;-64
2023/09/06 02:43:02;;;;;;;9.07;6.18;;;17.90;81.00;;;;;;5054343;28;20121;-64
2023/09/06 02:45:36;;;;;;;10.63;5.88;;;17.80;81.40;;;;;;5054554;28;20469;-64
2023/09/06 02:48:06;;;;;;;7.13;5.85;;;17.80;81.80;;;;;;5054533;28;20094;-65
2023/09/06 02:50:36;;;;;;;11.88;5.82;;;17.80;81.50;;;;;;5054179;28;20466;-64
2023/09/06 02:53:03;;;;;;;7.15;5.05;;;17.80;81.60;;;;;;5054144;28;20454;-64
2023/09/06 02:55:29;;;;;;;11.23;6.28;;;17.80;81.50;;;;;;5053893;28;20064;-64
2023/09/06 02:57:55;;;;;;;12.48;5.97;;;17.70;81.70;;;;;;5054132;28;20484;-65
2023/09/06 03:02:47;;;;;;;8.77;6.25;;;17.70;82.40;;;;;;5038453;28;20466;-64
2023/09/06 03:05:17;;;;;;;9.23;5.93;;;17.60;82.50;;;;;;5033904;28;20033;-64
2023/09/06 03:07:50;;;;;;;12.33;5.67;;;17.60;82.90;;;;;;5034318;28;20033;-64
2023/09/06 03:10:19;;;;;;;8.50;5.82;;;17.60;83.00;;;;;;5016186;28;20026;-65
2023/09/06 03:12:46;;;;;;;8.35;5.13;;;17.50;83.10;;;;;;5034186;28;20026;-64
2023/09/06 03:15:13;;;;;;;8.38;5.43;;;17.50;83.30;;;;;;5033777;28;20033;-65
2023/09/06 03:17:39;;;;;;;10.25;5.53;;;17.50;83.90;;;;;;5033953;28;20036;-65
2023/09/06 03:20:18;;;;;;;10.85;5.68;;;17.40;84.10;;;;;;5033581;28;20034;-67
2023/09/06 03:22:47;;;;;;;13.05;5.85;;;17.40;84.30;;;;;;5034166;28;20060;-65
2023/09/06 03:25:14;;;;;;;9.00;5.93;;;17.40;84.90;;;;;;5033449;28;20080;-65
2023/09/06 03:27:42;;;;;;;9.10;6.32;;;17.40;85.10;;;;;;5033920;28;20033;-64
2023/09/06 03:30:09;;;;;;;7.82;4.93;;;17.40;85.10;;;;;;5032833;28;20140;-65
2023/09/06 03:32:35;;;;;;;12.00;5.82;;;17.30;85.00;;;;;;5033810;28;20033;-65
2023/09/06 03:35:01;;;;;;;10.43;5.78;;;17.30;85.60;;;;;;5033257;28;20454;-65
2023/09/06 03:37:30;;;;;;;10.35;5.80;;;17.30;85.60;;;;;;5033524;28;20024;-65
2023/09/06 03:39:56;;;;;;;8.82;5.47;;;17.30;86.10;;;;;;5033287;28;20025;-65
2023/09/06 03:42:23;;;;;;;9.38;5.15;;;17.20;86.20;;;;;;5033901;28;20481;-64
2023/09/06 03:44:49;;;;;;;10.50;6.00;;;17.20;86.80;;;;;;5033415;28;20033;-64
2023/09/06 03:47:16;;;;;;;7.70;5.80;;;17.20;86.60;;;;;;5033490;28;20116;-65
2023/09/06 03:49:43;;;;;;;7.05;5.78;;;17.20;87.10;;;;;;5035476;28;20430;-64
2023/09/06 03:52:16;;;;;;;12.07;5.75;;;17.10;87.20;;;;;;5032972;28;20026;-65
2023/09/06 03:54:41;;;;;;;7.90;5.05;;;17.20;86.80;;;;;;5033287;28;20033;-64
2023/09/06 03:57:07;;;;;;;15.25;5.78;;;17.10;87.30;;;;;;5033082;28;20049;-64
2023/09/06 03:59:35;;;;;;;9.52;6.13;;;17.10;87.70;;;;;;5033449;28;20037;-64
2023/09/06 04:02:07;;;;;;;10.50;6.47;;;17.10;87.80;;;;;;5032867;28;20026;-65
2023/09/06 04:04:34;;;;;;;11.65;5.70;;;17.10;87.50;;;;;;5033051;28;20034;-65
2023/09/06 04:07:00;;;;;;;10.13;5.97;;;17.10;87.60;;;;;;5035383;28;20126;-65
2023/09/06 04:09:30;;;;;;;10.98;5.90;;;17.10;87.30;;;;;;5032834;28;20033;-65
2023/09/06 04:11:59;;;;;;;12.35;6.28;;;17.10;87.70;;;;;;5032636;28;20036;-66
2023/09/06 04:14:24;;;;;;;9.95;6.15;;;17.10;87.70;;;;;;5032914;28;20037;-64
2023/09/06 04:16:50;;;;;;;10.98;6.13;;;17.10;87.90;;;;;;5033282;28;20088;-65
2023/09/06 04:19:16;;;;;;;12.45;6.07;;;17.00;87.80;;;;;;5032654;28;20068;-65
2023/09/06 04:21:43;;;;;;;10.50;6.03;;;17.00;88.50;;;;;;5015067;28;20032;-64
2023/09/06 04:24:09;;;;;;;11.60;6.53;;;17.00;89.20;;;;;;5032382;28;20095;-64
2023/09/06 04:26:35;;;;;;;11.75;5.85;;;17.00;88.60;;;;;;5033048;28;20450;-64
2023/09/06 04:29:04;;;;;;;10.68;6.03;;;17.00;88.80;;;;;;5032629;28;20477;-64
2023/09/06 04:31:30;;;;;;;9.75;5.68;;;17.00;88.80;;;;;;5032712;28;20025;-64
2023/09/06 04:33:59;;;;;;;11.63;6.35;;;17.00;89.00;;;;;;5032786;28;20062;-63
2023/09/06 04:36:25;;;;;;;12.90;6.05;;;17.00;89.40;;;;;;5032800;28;20029;-64
2023/09/06 04:38:50;;;;;;;15.18;6.15;;;17.00;89.20;;;;;;5032689;28;20026;-63
2023/09/06 04:41:16;;;;;;;11.88;6.28;;;17.00;89.30;;;;;;5031354;28;20091;-63
2023/09/06 04:43:42;;;;;;;8.68;5.88;;;17.00;89.80;;;;;;5032739;28;20076;-63
2023/09/06 04:46:07;;;;;;;12.18;6.47;;;17.00;89.70;;;;;;5032247;28;20029;-64
2023/09/06 04:48:33;;;;;;;15.60;6.55;;;17.00;90.20;;;;;;5032770;28;20057;-64
2023/09/06 04:50:59;;;;;;;8.55;5.65;;;17.00;90.40;;;;;;5031936;28;20022;-64
2023/09/06 04:53:25;;;;;;;9.55;6.03;;;17.00;90.70;;;;;;5032361;28;20478;-64
2023/09/06 04:55:52;;;;;;;12.77;6.10;;;17.00;90.70;;;;;;5032472;28;20050;-64
2023/09/06 04:58:19;;;;;;;11.30;6.35;;;17.00;91.00;;;;;;5032249;28;20028;-64
2023/09/06 05:00:47;;;;;;;9.63;5.80;;;17.00;91.10;;;;;;5032604;28;20040;-64
2023/09/06 05:03:17;;;;;;;8.93;5.90;;;17.10;91.10;;;;;;5029766;28;20060;-64
2023/09/06 05:05:47;;;;;;;12.18;6.35;;;17.10;90.80;;;;;;5052705;28;20037;-64
2023/09/06 05:08:13;;;;;;;16.15;6.03;;;17.10;90.60;;;;;;5051755;28;20025;-64
2023/09/06 05:10:41;;;;;;;7.70;5.35;;;17.10;90.60;;;;;;5052509;28;20107;-64
2023/09/06 05:13:07;;;;;;;9.77;5.95;;;17.10;90.30;;;;;;5052016;28;20025;-64
2023/09/06 05:15:36;;;;;;;8.70;5.95;;;17.10;90.20;;;;;;5052268;28;20061;-64
2023/09/06 05:18:04;;;;;;;9.95;5.85;;;17.10;90.20;;;;;;5051708;28;20484;-64
2023/09/06 05:20:33;;;;;;;10.98;6.70;;;17.10;90.10;;;;;;5052351;28;20377;-64
2023/09/06 05:23:02;;;;;;;12.48;6.35;;;17.10;90.30;;;;;;5035088;28;20055;-64
2023/09/06 05:25:28;;;;;;;8.57;5.88;;;17.20;90.30;;;;;;5034376;28;20385;-64
2023/09/06 05:27:57;;;;;;;7.97;5.78;;;17.10;90.40;;;;;;5052087;28;20029;-64
2023/09/06 05:30:23;;;;;;;8.70;6.35;;;17.20;90.50;;;;;;5051806;28;20025;-64
2023/09/06 05:32:49;;;;;;;12.27;6.95;;;17.20;90.70;;;;;;5052157;28;20021;-64
2023/09/06 05:35:15;;;;;;;13.73;6.78;;;17.20;91.00;;;;;;5051816;28;20036;-63
2023/09/06 05:37:41;;;;;;;11.40;6.20;;;17.20;91.20;;;;;;5051994;28;20021;-63
2023/09/06 05:40:08;;;;;;;12.07;7.47;;;17.20;91.40;;;;;;5049538;28;20457;-64
2023/09/06 05:42:33;;;;;;;8.82;5.82;;;17.30;91.50;;;;;;5050820;28;20040;-63
2023/09/06 05:44:59;;;;;;;10.95;6.70;;;17.30;91.80;;;;;;5051918;28;20025;-64
2023/09/06 05:47:24;;;;;;;13.85;7.20;;;17.30;91.40;;;;;;5051540;28;20090;-64
2023/09/06 05:49:55;;;;;;;13.38;6.95;;;17.30;91.30;;;;;;5052026;28;20037;-64
2023/09/06 05:52:22;;;;;;;11.95;6.72;;;17.40;91.40;;;;;;5052923;28;20107;-65
2023/09/06 05:54:48;;;;;;;12.25;6.95;;;17.40;91.30;;;;;;5055474;28;20071;-65
2023/09/06 05:57:14;;;;;;;20.60;7.70;;;17.50;91.40;;;;;;5055170;28;20049;-64
2023/09/06 05:59:40;;;;;;;22.63;8.15;;;17.50;91.30;;;;;;5052225;28;20033;-65
2023/09/06 06:02:06;;;;;;;23.08;8.27;;;17.50;91.20;;;;;;5055055;28;20060;-66
2023/09/06 06:04:31;;;;;;;17.85;8.15;;;17.60;91.10;;;;;;5055017;28;20534;-65
2023/09/06 06:06:57;;;;;;;8.85;6.55;;;17.70;91.20;;;;;;5055402;28;20028;-63
2023/09/06 06:09:24;;;;;;;12.82;7.28;;;17.70;91.00;;;;;;5054929;28;20059;-65
2023/09/06 06:11:53;;;;;;;15.32;7.55;;;17.80;90.30;;;;;;5055261;28;20021;-65
2023/09/06 06:14:19;;;;;;;11.48;7.38;;;17.90;89.70;;;;;;5054709;28;20029;-64
2023/09/06 06:16:44;;;;;;;12.35;7.00;;;18.00;89.40;;;;;;5055229;28;20028;-64
2023/09/06 06:19:11;;;;;;;10.27;7.47;;;18.10;88.90;;;;;;5054479;28;20027;-65
2023/09/06 06:21:37;;;;;;;14.35;7.10;;;18.20;89.00;;;;;;5055001;28;20029;-64
2023/09/06 06:24:04;;;;;;;12.20;6.85;;;18.20;87.60;;;;;;5054949;28;20029;-65
2023/09/06 06:26:30;;;;;;;10.73;7.47;;;18.40;87.60;;;;;;5054619;28;20021;-65
2023/09/06 06:28:56;;;;;;;10.57;7.35;;;18.50;86.70;;;;;;5054742;28;20458;-65
2023/09/06 06:31:21;;;;;;;13.68;7.47;;;18.70;85.40;;;;;;5054336;28;20469;-64
2023/09/06 06:33:48;;;;;;;11.50;6.35;;;19.00;85.10;;;;;;5054673;28;20036;-64
2023/09/06 06:36:13;;;;;;;9.93;6.72;;;19.20;84.10;;;;;;5054295;28;20029;-63
2023/09/06 06:38:40;;;;;;;8.05;6.13;;;19.50;83.30;;;;;;5054685;28;20032;-64
2023/09/06 06:41:22;;;;;;;10.63;6.28;;;19.80;81.00;;;;;;5036822;28;20036;-65
2023/09/06 06:43:51;;;;;;;8.30;6.10;;;20.20;79.70;;;;;;5054558;28;20085;-65
2023/09/06 06:46:43;;;;;;;10.27;6.18;;;20.60;77.30;;;;;;5053880;28;20028;-66
2023/09/06 06:49:08;;;;;;;11.63;5.95;;;20.90;75.70;;;;;;5049206;28;20393;-65
2023/09/06 06:51:38;;;;;;;9.40;6.53;;;21.30;74.60;;;;;;5054617;28;20021;-63
2023/09/06 06:54:08;;;;;;;8.50;6.00;;;21.70;72.80;;;;;;5054284;28;20039;-64
2023/09/06 06:56:35;;;;;;;12.90;5.95;;;22.10;71.80;;;;;;5054006;28;20182;-63
2023/09/06 06:59:02;;;;;;;9.07;6.07;;;22.50;69.60;;;;;;5054202;28;20389;-63
2023/09/06 07:01:28;;;;;;;13.55;5.82;;;22.90;67.90;;;;;;5052242;28;20037;-65
2023/09/06 07:03:54;;;;;;;10.95;5.35;;;23.40;66.40;;;;;;5053038;28;20369;-64
2023/09/06 07:06:22;;;;;;;10.75;5.70;;;23.70;65.10;;;;;;5053778;28;20043;-64
2023/09/06 07:08:49;;;;;;;12.98;6.03;;;24.20;63.30;;;;;;5053969;28;20105;-63
2023/09/06 07:11:15;;;;;;;12.25;5.90;;;24.70;62.10;;;;;;5053704;28;20039;-63
2023/09/06 07:13:42;;;;;;;7.95;4.75;;;25.50;60.30;;;;;;5054290;28;20036;-65
2023/09/06 07:16:08;;;;;;;7.60;4.65;;;26.40;57.60;;;;;;5054138;28;20052;-64
2023/09/06 07:18:34;;;;;;;10.38;5.10;;;27.60;55.10;;;;;;5053910;28;20429;-65
2023/09/06 07:21:00;;;;;;;7.50;4.80;;;28.40;52.70;;;;;;5054094;28;20428;-64
2023/09/06 07:23:27;;;;;;;7.28;4.70;;;29.10;51.70;;;;;;5053358;28;20037;-65
2023/09/06 07:25:52;;;;;;;6.85;4.60;;;29.60;50.10;;;;;;5053368;28;20029;-65
2023/09/06 07:28:22;;;;;;;11.55;5.07;;;30.00;48.90;;;;;;5053508;28;20031;-65
2023/09/06 07:30:48;;;;;;;8.73;4.88;;;30.60;47.60;;;;;;5053812;28;20025;-64
2023/09/06 07:33:15;;;;;;;12.77;4.97;;;31.20;46.60;;;;;;5053405;28;20025;-65
2023/09/06 07:35:42;;;;;;;8.32;4.50;;;31.60;45.20;;;;;;5053757;28;20068;-64
2023/09/06 07:38:08;;;;;;;9.85;5.05;;;32.30;44.20;;;;;;5050125;28;20033;-64
2023/09/06 07:40:33;;;;;;;9.00;5.05;;;32.60;43.30;;;;;;5035245;28;20032;-64
2023/09/06 07:42:59;;;;;;;6.63;4.72;;;33.00;42.30;;;;;;5053499;28;20074;-64
2023/09/06 07:45:24;;;;;;;7.65;4.78;;;33.20;42.20;;;;;;5052748;28;20055;-64
2023/09/06 07:47:51;;;;;;;8.65;4.88;;;33.40;41.30;;;;;;5053487;28;20033;-64
2023/09/06 07:50:17;;;;;;;10.98;4.80;;;33.20;41.50;;;;;;5052898;28;20498;-64
2023/09/06 07:52:42;;;;;;;8.77;4.53;;;33.70;42.00;;;;;;5053342;28;20100;-64
2023/09/06 07:55:08;;;;;;;6.15;4.80;;;34.10;40.70;;;;;;5052853;28;20397;-64
2023/09/06 07:57:34;;;;;;;12.38;4.82;;;34.00;40.70;;;;;;5052978;28;20122;-65
2023/09/06 08:00:00;;;;;;;8.95;5.15;;;34.30;40.70;;;;;;5052917;28;20049;-64
2023/09/06 08:02:25;;;;;;;7.55;5.00;;;34.80;39.80;;;;;;5049870;28;20432;-63
2023/09/06 08:04:51;;;;;;;7.80;4.60;;;35.20;39.20;;;;;;5052677;28;20040;-63
2023/09/06 08:07:17;;;;;;;6.30;5.03;;;35.60;38.60;;;;;;5034913;28;20028;-64
2023/09/06 08:09:43;;;;;;;9.23;4.72;;;35.50;38.80;;;;;;5053141;28;20040;-64
2023/09/06 08:12:09;;;;;;;7.68;4.10;;;35.60;38.10;;;;;;5052666;28;20025;-64
2023/09/06 08:14:35;;;;;;;8.48;3.75;;;35.80;38.70;;;;;;5052118;28;20074;-64
2023/09/06 08:17:01;;;;;;;4.47;3.55;;;35.90;37.80;;;;;;5052947;28;20039;-64
2023/09/06 08:19:27;;;;;;;5.65;3.90;;;35.50;38.30;;;;;;5052289;28;20090;-64
2023/09/06 08:21:53;;;;;;;11.05;3.75;;;35.70;38.50;;;;;;5052467;28;20128;-65
2023/09/06 08:24:18;;;;;;;12.07;4.10;;;35.60;38.10;;;;;;5052090;28;20029;-65
2023/09/06 08:26:48;;;;;;;9.07;3.58;;;36.40;38.20;;;;;;5052821;28;20386;-63
2023/09/06 08:29:13;;;;;;;10.43;4.22;;;36.50;37.70;;;;;;5052799;28;20090;-66
2023/09/06 08:31:39;;;;;;;8.23;3.60;;;35.80;37.60;;;;;;5052801;28;20410;-63
2023/09/06 08:34:05;;;;;;;8.43;3.42;;;35.60;37.90;;;;;;5052574;28;20033;-64
2023/09/06 08:36:30;;;;;;;5.50;3.25;;;35.50;38.50;;;;;;5052264;28;20386;-64
2023/09/06 08:38:57;;;;;;;4.75;2.63;;;35.60;39.00;;;;;;5052942;28;20032;-64
2023/09/06 08:41:26;;;;;;;7.57;3.40;;;35.50;38.70;;;;;;5052043;28;20033;-64
2023/09/06 08:43:52;;;;;;;6.53;3.30;;;34.80;38.70;;;;;;5052464;28;20029;-64
2023/09/06 08:46:23;;;;;;;7.65;3.15;;;33.60;40.20;;;;;;5052008;28;20465;-64
2023/09/06 08:48:51;;;;;;;7.70;3.67;;;32.60;41.60;;;;;;5052423;28;20060;-64
2023/09/06 08:51:18;;;;;;;5.28;3.78;;;31.60;43.40;;;;;;5051987;28;20037;-64
2023/09/06 08:53:44;;;;;;;9.27;4.00;;;31.10;44.00;;;;;;5052079;28;20451;-65
2023/09/06 08:56:12;;;;;;;7.22;3.40;;;30.70;45.00;;;;;;5054121;28;20073;-65
2023/09/06 08:58:37;;;;;;;8.40;3.55;;;30.40;45.60;;;;;;5051728;28;20557;-65
2023/09/06 09:01:06;;;;;;;8.77;3.00;;;30.50;46.20;;;;;;5052601;28;20096;-65
2023/09/06 09:03:32;;;;;;;9.10;3.13;;;30.50;46.00;;;;;;5051761;28;20078;-65
2023/09/06 09:06:00;;;;;;;6.65;2.83;;;30.50;45.10;;;;;;5052517;28;20036;-65
2023/09/06 09:08:29;;;;;;;7.82;2.67;;;30.30;44.70;;;;;;5051767;28;20029;-65
2023/09/06 09:11:14;;;;;;;5.70;2.50;;;30.40;44.80;;;;;;5036772;28;20508;-64
2023/09/06 09:13:44;;;;;;;3.42;2.50;;;30.10;44.00;;;;;;5031907;28;20116;-64
2023/09/06 09:16:11;;;;;;;7.38;2.20;;;30.00;44.00;;;;;;5032318;28;20061;-64
2023/09/06 09:18:38;;;;;;;3.35;2.42;;;29.90;43.90;;;;;;5031928;28;20080;-64
2023/09/06 09:21:04;;;;;;;5.25;2.63;;;29.70;45.00;;;;;;5032357;28;20038;-64
2023/09/06 09:23:31;;;;;;;6.32;2.60;;;29.70;45.30;;;;;;5031852;28;20025;-65
2023/09/06 09:25:57;;;;;;;7.80;3.05;;;29.80;45.60;;;;;;5032257;28;20036;-64
2023/09/06 09:28:23;;;;;;;7.97;2.83;;;29.70;45.00;;;;;;5035781;28;20029;-64
2023/09/06 09:30:50;;;;;;;6.07;2.85;;;29.70;44.40;;;;;;5037119;28;20049;-64
2023/09/06 09:33:16;;;;;;;4.00;2.40;;;29.70;44.60;;;;;;5036069;28;20108;-64
2023/09/06 09:35:43;;;;;;;4.95;2.70;;;29.60;44.30;;;;;;5035511;28;20486;-65
2023/09/06 09:38:12;;;;;;;7.03;2.30;;;29.60;44.40;;;;;;5036152;28;20112;-64
2023/09/06 09:40:38;;;;;;;2.95;2.60;;;29.60;44.30;;;;;;5035531;28;20108;-63
2023/09/06 09:43:04;;;;;;;6.30;2.67;;;29.60;43.90;;;;;;5035774;28;20156;-64
2023/09/06 09:45:43;;;;;;;5.57;2.17;;;29.60;43.60;;;;;;5035303;28;20033;-65
2023/09/06 09:48:10;;;;;;;6.03;2.33;;;29.50;43.60;;;;;;5035587;28;20065;-64
2023/09/06 09:50:36;;;;;;;6.25;2.72;;;29.50;44.10;;;;;;5035049;28;20100;-67
2023/09/06 09:53:08;;;;;;;3.58;2.67;;;29.50;43.60;;;;;;5035770;28;20033;-64
2023/09/06 09:55:39;;;;;;;5.22;2.50;;;29.30;43.90;;;;;;5035097;28;20042;-64
2023/09/06 09:58:08;;;;;;;5.25;2.30;;;29.20;43.90;;;;;;5036088;28;20037;-64
2023/09/06 10:00:38;;;;;;;3.83;2.78;;;29.10;44.30;;;;;;5036401;28;20041;-65
2023/09/06 10:03:04;;;;;;;3.22;2.40;;;29.10;44.90;;;;;;5035483;28;20029;-65
2023/09/06 10:05:31;;;;;;;4.15;2.58;;;29.10;44.00;;;;;;5034963;28;20488;-65
2023/09/06 10:08:00;;;;;;;4.68;2.20;;;29.00;43.40;;;;;;5035239;28;20037;-64
2023/09/06 10:10:27;;;;;;;3.40;2.55;;;28.90;43.40;;;;;;5034930;28;20025;-64
2023/09/06 10:12:56;;;;;;;5.60;2.38;;;28.90;43.30;;;;;;5035036;28;20473;-64
2023/09/06 10:15:24;;;;;;;6.35;2.47;;;28.80;43.40;;;;;;5035195;28;20029;-64
2023/09/06 10:17:54;;;;;;;13.82;2.50;;;28.70;43.40;;;;;;5017975;28;20029;-64
2023/09/06 10:20:27;;;;;;;4.00;2.37;;;28.70;43.40;;;;;;5035339;28;20057;-65
2023/09/06 10:22:56;;;;;;;6.72;2.30;;;28.80;43.50;;;;;;5035034;28;20028;-65
2023/09/06 10:25:23;;;;;;;5.00;2.38;;;28.80;43.60;;;;;;5034840;28;20043;-65
2023/09/06 10:27:51;;;;;;;5.57;2.20;;;28.80;43.40;;;;;;5035179;28;20033;-65
2023/09/06 10:30:28;;;;;;;3.22;2.67;;;28.80;43.20;;;;;;5034938;28;20029;-64
2023/09/06 10:32:54;;;;;;;7.15;2.22;;;28.80;43.50;;;;;;5035023;28;20025;-64
2023/09/06 10:35:29;;;;;;;5.75;2.20;;;28.70;43.30;;;;;;5034950;28;20032;-64
2023/09/06 10:38:01;;;;;;;3.63;2.63;;;28.70;43.60;;;;;;5034809;28;20034;-64
2023/09/06 10:40:49;;;;;;;2.72;1.83;;;28.60;43.30;;;;;;5034483;28;20026;-64
2023/09/06 10:43:55;;;;;;;3.30;2.25;;;28.70;44.00;;;;;;5034992;28;20025;-64
2023/09/06 10:46:27;;;;;;;5.10;2.10;;;28.60;43.50;;;;;;5034723;28;20033;-64
2023/09/06 10:49:14;;;;;;;5.55;2.20;;;28.70;44.10;;;;;;5034936;28;20049;-65
2023/09/06 10:51:59;;;;;;;4.43;2.33;;;28.70;43.30;;;;;;5034083;28;20534;-65
2023/09/06 10:54:46;;;;;;;5.90;2.63;;;28.70;43.80;;;;;;5034254;28;20083;-67
2023/09/06 10:57:14;;;;;;;4.05;2.22;;;28.60;43.70;;;;;;5034595;28;20054;-64
2023/09/06 10:59:43;;;;;;;5.35;2.58;;;28.50;43.70;;;;;;5034008;28;20044;-64
2023/09/06 11:02:27;;;;;;;2.92;2.40;;;28.40;43.80;;;;;;5035543;28;20109;-64
2023/09/06 11:05:09;;;;;;;4.97;2.00;;;28.40;44.10;;;;;;5034118;28;20492;-64
2023/09/06 11:07:43;;;;;;;4.88;2.33;;;28.30;43.80;;;;;;5034132;28;20033;-64
2023/09/06 11:10:12;;;;;;;3.42;2.30;;;28.40;44.30;;;;;;5033695;28;20530;-64
2023/09/06 11:12:38;;;;;;;4.65;1.92;;;28.40;44.20;;;;;;5033689;28;20029;-64
2023/09/06 11:15:09;;;;;;;4.60;2.45;;;28.50;44.50;;;;;;5033950;28;20056;-64
2023/09/06 11:17:35;;;;;;;3.35;2.42;;;28.50;44.20;;;;;;5033683;28;20386;-64
2023/09/06 11:20:12;;;;;;;4.35;2.28;;;28.50;44.20;;;;;;5036496;28;20104;-64
2023/09/06 11:22:58;;;;;;;3.40;2.30;;;28.50;44.00;;;;;;5050512;28;20029;-65
2023/09/06 11:25:26;;;;;;;7.38;2.55;;;28.40;44.50;;;;;;5033234;28;20041;-65
2023/09/06 11:27:55;;;;;;;3.90;2.15;;;28.40;44.60;;;;;;5043336;28;20071;-65
2023/09/06 11:30:22;;;;;;;6.43;2.40;;;28.40;44.70;;;;;;5053512;28;20063;-66
2023/09/06 11:32:51;;;;;;;4.25;2.20;;;28.40;44.50;;;;;;5052921;28;20036;-66
2023/09/06 11:35:26;;;;;;;4.78;2.80;;;28.40;44.50;;;;;;5053457;28;20025;-65
2023/09/06 11:37:53;;;;;;;2.97;1.98;;;28.50;45.00;;;;;;5053355;28;20033;-64
2023/09/06 11:40:20;;;;;;;3.85;2.08;;;28.60;44.60;;;;;;5053342;28;20037;-65
2023/09/06 11:42:52;;;;;;;1.73;1.63;;;28.60;44.30;;;;;;5052222;28;20108;-65
2023/09/06 11:45:20;;;;;;;4.80;2.15;;;28.60;44.50;;;;;;5033344;28;20034;-64
2023/09/06 11:47:47;;;;;;;4.95;2.00;;;28.60;44.30;;;;;;5032958;28;20037;-64
2023/09/06 11:50:19;;;;;;;2.45;2.17;;;28.50;44.20;;;;;;5032848;28;20037;-65
2023/09/06 11:52:53;;;;;;;4.15;2.20;;;28.60;44.20;;;;;;5035226;28;20595;-64
2023/09/06 11:55:20;;;;;;;5.10;3.05;;;28.70;43.90;;;;;;5032990;28;20462;-64
2023/09/06 11:57:52;;;;;;;2.63;2.28;;;28.70;44.20;;;;;;5032879;28;20405;-65
2023/09/06 12:00:27;;;;;;;4.85;2.28;;;28.70;43.40;;;;;;5032945;28;20493;-64
2023/09/06 12:02:55;;;;;;;3.15;2.15;;;28.60;43.40;;;;;;5033139;28;20370;-64
2023/09/06 12:05:24;;;;;;;4.75;2.10;;;28.60;43.50;;;;;;5032985;28;20079;-64
2023/09/06 12:07:50;;;;;;;9.20;2.05;;;28.50;43.60;;;;;;5032541;28;20076;-64
2023/09/06 12:10:20;;;;;;;4.40;1.83;;;28.50;43.40;;;;;;5033011;28;20049;-64
2023/09/06 12:12:48;;;;;;;;;;;28.60;43.60;;;;;;5032840;28;20029;-64
2023/09/06 12:15:14;;;;;;;6.80;2.25;;;28.60;43.80;;;;;;5032858;28;19944;-65
2023/09/06 12:17:45;;;;;;;2.47;2.05;;;28.60;43.20;;;;;;5032492;28;20489;-65
2023/09/06 12:20:27;;;;;;;2.78;2.17;;;28.50;43.30;;;;;;5032720;28;20068;-65
2023/09/06 12:22:53;;;;;;;3.38;1.70;;;28.40;43.90;;;;;;5032343;28;20028;-64
2023/09/06 12:25:20;;;;;;;4.00;2.17;;;28.30;44.00;;;;;;5032600;28;20116;-65
2023/09/06 12:27:46;;;;;;;5.40;2.55;;;28.20;43.90;;;;;;5040981;28;20037;-64
2023/09/06 12:30:16;;;;;;;8.00;2.40;;;28.10;44.30;;;;;;5052725;28;20079;-65
2023/09/06 12:32:42;;;;;;;4.45;1.60;;;28.00;44.40;;;;;;5051997;28;20079;-64
2023/09/06 12:35:09;;;;;;;4.18;1.75;;;27.80;44.40;;;;;;5052636;28;20028;-64
2023/09/06 12:37:36;;;;;;;3.20;2.10;;;27.80;44.60;;;;;;5052103;28;20055;-65
2023/09/06 12:40:10;;;;;;;2.03;1.77;;;27.70;44.90;;;;;;5052618;28;20032;-64
2023/09/06 12:42:47;;;;;;;2.40;2.08;;;27.60;45.60;;;;;;5051746;28;20025;-65
2023/09/06 12:45:30;;;;;;;5.32;2.20;;;27.60;45.40;;;;;;5052458;28;20032;-65
2023/09/06 12:47:57;;;;;;;3.17;1.92;;;27.50;45.20;;;;;;5052224;28;20033;-65
2023/09/06 12:50:24;;;;;;;5.55;2.38;;;27.40;45.70;;;;;;5052091;28;20029;-65